Time;durP1;ratioP1;P1;durP2;ratioP2;P2;SDS_P1;SDS_P2;PMS_P1;PMS_P2;Temp;Humidity;BMP_temperature;BMP_pressure;BME280_temperature;BME280_humidity;BME280_pressure;Samples;Min_cycle;Max_cycle;Signal;HPM_P1;HPM_P2
2024/02/19 00:00:00;;;;;;;0.43;0.35;;;;;;;6.95;98.85;99000.38;5014261;28;20037;-88
2024/02/19 00:02:25;;;;;;;0.80;0.80;;;;;;;6.46;98.27;98921.78;5035008;28;20025;-88
2024/02/19 00:04:51;;;;;;;0.50;0.50;;;;;;;6.77;97.48;98969.38;5009693;28;20041;-88
2024/02/19 00:07:17;;;;;;;0.38;0.38;;;;;;;6.92;97.37;98992.88;5029967;28;20132;-89
2024/02/19 00:09:44;;;;;;;0.55;0.45;;;;;;;6.83;97.50;98979.09;5027430;28;20040;-89
2024/02/19 00:12:10;;;;;;;3.28;0.57;;;;;;;6.75;97.74;99003.25;5015579;28;20407;-88
2024/02/19 00:14:36;;;;;;;2.05;0.52;;;;;;;6.74;97.56;98983.88;5029936;28;20447;-88
2024/02/19 00:17:01;;;;;;;0.40;0.40;;;;;;;6.34;97.47;98947.38;5035019;28;20025;-88
2024/02/19 00:19:27;;;;;;;0.40;0.38;;;;;;;6.27;97.44;98936.03;5032838;28;20025;-88
2024/02/19 00:21:52;;;;;;;0.90;0.55;;;;;;;6.83;96.86;99029.50;5013043;28;20029;-88
2024/02/19 00:24:18;;;;;;;0.30;0.30;;;;;;;6.42;96.51;98955.84;5027988;28;20025;-88
2024/02/19 00:26:43;;;;;;;0.20;0.20;;;;;;;6.38;96.43;98959.16;5010283;28;20038;-88
2024/02/19 00:29:08;;;;;;;2.50;0.40;;;;;;;6.93;96.76;99035.09;4988741;28;20033;-88
2024/02/19 00:31:34;;;;;;;1.00;0.50;;;;;;;6.80;96.93;99040.53;5013981;28;20069;-88
2024/02/19 00:33:59;;;;;;;0.30;0.30;;;;;;;6.58;97.34;98984.47;5028848;28;20033;-88
2024/02/19 00:36:25;;;;;;;0.30;0.30;;;;;;;6.77;96.88;99033.84;5010855;28;20045;-88
2024/02/19 00:38:50;;;;;;;0.90;0.30;;;;;;;6.67;96.94;99020.28;5026623;28;20036;-88
2024/02/19 00:41:19;;;;;;;0.20;0.20;;;;;;;6.54;97.10;99023.06;5012701;28;20043;-88
2024/02/19 00:43:45;;;;;;;0.28;0.28;;;;;;;6.55;97.51;99061.78;5014337;28;20489;-88
2024/02/19 00:46:10;;;;;;;0.75;0.30;;;;;;;6.64;97.38;99054.38;5039521;28;20037;-88
2024/02/19 00:48:36;;;;;;;0.30;0.30;;;;;;;6.69;97.24;99057.19;5034042;28;20029;-88
2024/02/19 00:51:03;;;;;;;0.20;0.20;;;;;;;6.58;96.73;99052.59;5028893;28;20036;-88
2024/02/19 00:53:28;;;;;;;0.60;0.30;;;;;;;6.47;97.33;99058.59;5021412;28;20033;-87
2024/02/19 00:55:54;;;;;;;0.25;0.25;;;;;;;6.62;96.92;99043.16;5011913;28;20136;-88
2024/02/19 00:58:19;;;;;;;0.20;0.20;;;;;;;6.14;97.52;98989.94;5029031;28;20026;-88
2024/02/19 01:00:45;;;;;;;0.10;0.10;;;;;;;6.12;96.85;98985.88;5015385;28;20515;-88
2024/02/19 01:03:11;;;;;;;0.15;0.15;;;;;;;5.99;98.07;98995.56;4993744;28;20033;-88
2024/02/19 01:05:37;;;;;;;0.22;0.22;;;;;;;6.15;96.84;98980.97;5027220;28;20037;-88
2024/02/19 01:08:03;;;;;;;0.52;0.10;;;;;;;6.71;96.74;99077.16;5025514;28;20056;-89
2024/02/19 01:10:28;;;;;;;1.55;0.30;;;;;;;6.71;96.58;99078.97;5029424;28;20025;-88
2024/02/19 01:12:54;;;;;;;1.13;0.20;;;;;;;6.42;96.13;99035.38;5028738;28;20091;-88
2024/02/19 01:15:19;;;;;;;0.17;0.17;;;;;;;6.58;96.25;99071.97;5013204;28;20477;-88
2024/02/19 01:17:44;;;;;;;0.22;0.22;;;;;;;6.80;96.93;99085.63;5007947;28;20042;-89
2024/02/19 01:20:11;;;;;;;0.30;0.30;;;;;;;6.07;97.14;99006.94;5029844;28;20042;-88
2024/02/19 01:22:36;;;;;;;0.20;0.20;;;;;;;6.93;96.36;99084.69;5023851;28;20036;-88
2024/02/19 01:25:02;;;;;;;0.10;0.10;;;;;;;6.14;95.90;99010.34;5009587;28;20397;-88
2024/02/19 01:27:28;;;;;;;1.48;0.30;;;;;;;6.93;95.97;99098.78;5030408;28;20017;-88
2024/02/19 01:29:54;;;;;;;1.48;0.20;;;;;;;6.56;95.86;99028.13;5022909;28;20454;-88
2024/02/19 01:32:19;;;;;;;0.10;0.10;;;;;;;6.92;95.59;99068.00;4994340;28;20064;-88
2024/02/19 01:34:45;;;;;;;0.30;0.15;;;;;;;6.67;96.01;99044.16;4994104;28;20041;-88
2024/02/19 01:37:10;;;;;;;0.30;0.22;;;;;;;6.82;95.80;99079.09;5030587;28;20040;-88
2024/02/19 01:39:36;;;;;;;0.20;0.20;;;;;;;6.75;95.85;99059.75;5030100;28;20028;-88
2024/02/19 01:42:03;;;;;;;0.38;0.38;;;;;;;6.77;97.01;99112.63;5028870;28;20853;-88
2024/02/19 01:44:29;;;;;;;0.35;0.20;;;;;;;6.20;97.27;99020.09;5011032;28;20405;-88
2024/02/19 01:46:55;;;;;;;0.40;0.40;;;;;;;6.86;97.84;99100.69;5028367;28;20021;-88
2024/02/19 01:49:21;;;;;;;0.25;0.25;;;;;;;6.79;97.51;99116.66;5028755;28;20044;-88
2024/02/19 01:51:48;;;;;;;0.52;0.35;;;;;;;6.27;97.38;99013.69;5027821;28;20943;-89
2024/02/19 01:54:14;;;;;;;0.15;0.15;;;;;;;6.62;98.17;99083.75;5028092;28;20451;-88
2024/02/19 01:56:41;;;;;;;0.28;0.28;;;;;;;6.64;98.15;99086.22;5025853;28;20030;-88
2024/02/19 01:59:09;;;;;;;0.20;0.20;;;;;;;6.74;98.73;99100.59;5027787;28;20032;-88
2024/02/19 02:01:37;;;;;;;0.30;0.30;;;;;;;6.80;98.00;99112.16;5025851;28;20036;-89
2024/02/19 02:04:05;;;;;;;0.68;0.30;;;;;;;6.79;99.00;99118.53;5024345;28;20064;-88
2024/02/19 02:06:32;;;;;;;0.32;0.30;;;;;;;6.62;98.48;99082.94;5010807;28;20060;-88
2024/02/19 02:08:58;;;;;;;0.30;0.30;;;;;;;6.58;99.38;99114.41;5012113;28;20083;-88
2024/02/19 02:11:24;;;;;;;0.10;0.10;;;;;;;6.49;99.13;99067.13;5010271;28;20053;-89
2024/02/19 02:13:49;;;;;;;0.40;0.30;;;;;;;6.70;99.40;99117.16;5024836;28;20064;-88
2024/02/19 02:16:24;;;;;;;1.05;0.30;;;;;;;6.61;100.00;99115.81;4987718;28;20037;-88
2024/02/19 02:18:49;;;;;;;0.20;0.20;;;;;;;6.79;98.96;99131.78;5026676;28;20057;-88
2024/02/19 02:21:16;;;;;;;0.25;0.25;;;;;;;6.36;100.00;99094.56;5027363;28;20121;-88
2024/02/19 02:23:41;;;;;;;1.88;0.22;;;;;;;6.76;100.00;99133.03;5012019;28;20034;-88
2024/02/19 02:26:07;;;;;;;0.20;0.20;;;;;;;6.70;100.00;99167.56;5008542;28;20022;-88
2024/02/19 02:28:33;;;;;;;0.55;0.30;;;;;;;6.10;99.79;99057.66;5013487;28;20037;-88
2024/02/19 02:30:58;;;;;;;0.30;0.30;;;;;;;6.50;99.74;99133.22;5008617;28;20030;-88
2024/02/19 02:33:23;;;;;;;0.10;0.10;;;;;;;6.73;99.70;99161.81;4993788;28;20034;-88
2024/02/19 02:35:49;;;;;;;0.35;0.35;;;;;;;6.27;98.89;99098.50;5013748;28;20061;-88
2024/02/19 02:38:14;;;;;;;0.28;0.28;;;;;;;6.61;99.55;99155.59;5012380;28;20022;-88
2024/02/19 02:40:40;;;;;;;0.55;0.20;;;;;;;6.40;99.80;99105.56;5031284;28;20034;-88
2024/02/19 02:43:05;;;;;;;0.43;0.20;;;;;;;6.41;99.52;99139.00;5031751;28;20029;-88
2024/02/19 02:45:31;;;;;;;0.20;0.20;;;;;;;6.51;99.43;99123.44;5011931;28;20037;-88
2024/02/19 02:47:56;;;;;;;0.20;0.20;;;;;;;6.64;99.61;99169.22;5032787;28;20033;-88
2024/02/19 02:50:22;;;;;;;0.10;0.10;;;;;;;6.27;99.05;99101.16;5031862;28;20056;-88
2024/02/19 02:52:47;;;;;;;1.40;0.25;;;;;;;6.50;98.78;99148.31;5011830;28;20042;-88
2024/02/19 02:55:13;;;;;;;0.20;0.20;;;;;;;6.14;98.71;99117.16;5029432;28;20481;-88
2024/02/19 02:57:38;;;;;;;0.30;0.20;;;;;;;6.60;99.48;99196.38;4993511;28;20030;-88
2024/02/19 03:00:04;;;;;;;0.10;0.10;;;;;;;6.44;99.77;99155.31;5027660;28;20472;-88
2024/02/19 03:02:32;;;;;;;0.10;0.10;;;;;;;6.29;99.40;99154.75;5033717;28;20022;-88
2024/02/19 03:04:58;;;;;;;0.20;0.20;;;;;;;6.61;99.41;99208.63;5015633;28;20167;-88
2024/02/19 03:07:23;;;;;;;0.20;0.20;;;;;;;6.25;99.42;99156.22;5028154;28;20520;-88
2024/02/19 03:09:49;;;;;;;0.30;0.30;;;;;;;5.94;99.70;99127.06;5007687;28;20374;-88
2024/02/19 03:12:14;;;;;;;0.47;0.40;;;;;;;6.08;99.33;99128.59;5036495;28;20491;-88
2024/02/19 03:14:41;;;;;;;0.28;0.28;;;;;;;6.12;99.27;99151.00;4997309;28;20136;-89
2024/02/19 03:17:07;;;;;;;0.20;0.20;;;;;;;6.63;99.21;99219.81;5033294;28;20029;-88
2024/02/19 03:19:32;;;;;;;0.32;0.32;;;;;;;6.11;99.04;99130.84;5011916;28;20028;-89
2024/02/19 03:21:58;;;;;;;0.30;0.25;;;;;;;6.33;99.74;99184.31;5026564;28;20026;-88
2024/02/19 03:24:23;;;;;;;0.25;0.25;;;;;;;6.60;98.97;99233.50;4994080;28;20084;-88
2024/02/19 03:26:49;;;;;;;1.77;0.63;;;;;;;6.57;99.57;99233.94;5024909;28;20508;-88
2024/02/19 03:29:15;;;;;;;0.30;0.30;;;;;;;6.37;99.17;99198.78;5013506;28;20452;-89
2024/02/19 03:31:40;;;;;;;0.38;0.38;;;;;;;6.64;98.83;99240.03;5029117;28;20120;-88
2024/02/19 03:34:06;;;;;;;0.47;0.47;;;;;;;6.63;98.69;99246.34;5029148;28;20045;-89
2024/02/19 03:36:32;;;;;;;1.55;0.45;;;;;;;6.56;99.26;99237.59;5029968;28;20105;-88
2024/02/19 03:38:57;;;;;;;0.57;0.40;;;;;;;6.52;99.21;99255.78;5014331;28;20025;-88
2024/02/19 03:41:23;;;;;;;0.30;0.30;;;;;;;6.40;99.00;99203.66;5030612;28;20029;-88
2024/02/19 03:43:48;;;;;;;0.57;0.50;;;;;;;6.43;99.06;99238.50;5012192;28;20409;-88
2024/02/19 03:46:14;;;;;;;0.30;0.30;;;;;;;6.57;99.28;99252.50;5026826;28;20040;-88
2024/02/19 03:48:39;;;;;;;3.20;0.52;;;;;;;6.53;99.36;99264.56;5028573;28;20091;-88
2024/02/19 03:51:05;;;;;;;2.60;0.43;;;;;;;6.47;99.79;99273.34;5030185;28;20464;-88
2024/02/19 03:53:31;;;;;;;0.38;0.38;;;;;;;6.40;99.99;99268.09;5032926;28;20056;-88
2024/02/19 03:55:56;;;;;;;1.10;0.30;;;;;;;6.09;99.94;99209.72;5029861;28;20028;-88
2024/02/19 03:58:23;;;;;;;0.40;0.40;;;;;;;6.25;99.54;99242.88;5030575;28;20022;-88
2024/02/19 04:00:48;;;;;;;0.28;0.28;;;;;;;6.16;99.09;99234.34;5015597;28;20041;-88
2024/02/19 04:03:14;;;;;;;0.30;0.30;;;;;;;6.09;99.78;99214.22;5033842;28;20037;-88
2024/02/19 04:05:39;;;;;;;0.20;0.20;;;;;;;6.31;98.99;99237.53;5030468;28;20405;-88
2024/02/19 04:08:05;;;;;;;0.73;0.40;;;;;;;6.57;98.90;99313.50;5015221;28;20053;-88
2024/02/19 04:10:30;;;;;;;0.40;0.40;;;;;;;6.57;99.07;99313.50;5026410;28;20044;-88
2024/02/19 04:12:56;;;;;;;0.28;0.28;;;;;;;6.40;99.77;99321.09;5000123;28;20110;-88
2024/02/19 04:15:21;;;;;;;0.13;0.13;;;;;;;6.33;98.74;99274.44;5029695;28;20536;-88
2024/02/19 04:17:48;;;;;;;0.57;0.52;;;;;;;6.11;98.52;99252.72;5027433;28;20365;-89
2024/02/19 04:20:14;;;;;;;0.28;0.28;;;;;;;6.48;99.10;99322.72;5028688;28;20390;-89
2024/02/19 04:22:39;;;;;;;0.22;0.22;;;;;;;6.48;98.96;99335.97;5012785;28;20037;-89
2024/02/19 04:25:05;;;;;;;1.02;0.35;;;;;;;6.57;97.84;99347.97;5024760;28;20033;-88
2024/02/19 04:27:30;;;;;;;0.30;0.30;;;;;;;6.38;97.13;99317.84;5035581;28;20148;-89
2024/02/19 04:29:55;;;;;;;2.72;0.60;;;;;;;6.05;97.90;99277.38;5012395;28;20116;-88
2024/02/19 04:32:21;;;;;;;0.20;0.20;;;;;;;6.33;97.68;99322.16;4995417;28;20043;-89
2024/02/19 04:34:46;;;;;;;2.25;0.90;;;;;;;5.78;98.76;99268.69;4995764;28;20539;-88
2024/02/19 04:37:12;;;;;;;1.58;0.50;;;;;;;6.26;98.71;99330.16;5011481;28;20121;-88
2024/02/19 04:39:37;;;;;;;0.52;0.52;;;;;;;6.36;98.28;99343.75;5029166;28;20099;-88
2024/02/19 04:42:03;;;;;;;0.88;0.85;;;;;;;5.84;98.07;99290.91;5029017;28;20248;-88
2024/02/19 04:44:29;;;;;;;0.52;0.52;;;;;;;6.22;97.49;99336.88;5010501;28;20083;-88
2024/02/19 04:46:55;;;;;;;0.50;0.50;;;;;;;6.17;98.47;99365.00;5022978;28;20033;-89
2024/02/19 04:49:21;;;;;;;0.68;0.68;;;;;;;5.80;97.20;99305.56;5028324;28;20053;-88
2024/02/19 04:51:46;;;;;;;0.57;0.50;;;;;;;5.77;97.43;99327.97;4996312;28;20039;-88
2024/02/19 04:54:12;;;;;;;2.78;0.80;;;;;;;6.10;98.03;99378.28;5013254;28;20409;-89
2024/02/19 04:56:37;;;;;;;0.70;0.70;;;;;;;6.07;96.91;99362.00;5028554;28;20029;-88
2024/02/19 04:59:03;;;;;;;0.60;0.60;;;;;;;6.11;96.88;99356.06;5016169;28;20026;-88
2024/02/19 05:01:31;;;;;;;1.30;0.73;;;;;;;6.02;98.42;99389.94;4995711;28;20136;-88
2024/02/19 05:03:57;;;;;;;0.85;0.70;;;;;;;5.49;98.04;99330.03;5026262;28;20456;-88
2024/02/19 05:06:23;;;;;;;1.17;0.68;;;;;;;5.97;97.55;99371.16;5029818;28;20106;-88
2024/02/19 05:08:49;;;;;;;1.10;0.98;;;;;;;5.86;97.10;99378.91;5012289;28;20045;-89
2024/02/19 05:11:15;;;;;;;2.15;0.73;;;;;;;6.07;97.84;99408.66;5024700;28;20033;-88
2024/02/19 05:13:41;;;;;;;1.15;0.73;;;;;;;6.14;96.78;99402.56;5025332;28;20499;-88
2024/02/19 05:16:07;;;;;;;0.73;0.73;;;;;;;5.89;97.53;99357.34;5024897;28;20044;-88
2024/02/19 05:18:32;;;;;;;1.98;0.63;;;;;;;5.93;96.83;99354.06;5007124;28;20025;-88
2024/02/19 05:20:58;;;;;;;0.68;0.68;;;;;;;5.35;96.63;99299.28;5030924;28;20034;-88
2024/02/19 05:23:24;;;;;;;3.78;1.10;;;;;;;6.14;96.88;99402.56;4993986;28;20033;-88
2024/02/19 05:25:49;;;;;;;1.23;0.60;;;;;;;6.13;96.53;99411.50;5026806;28;20033;-89
2024/02/19 05:28:15;;;;;;;0.93;0.80;;;;;;;5.67;96.72;99340.81;5029873;28;20036;-88
2024/02/19 05:30:40;;;;;;;3.67;1.35;;;;;;;5.82;97.06;99372.38;5030985;28;20388;-88
2024/02/19 05:33:05;;;;;;;0.93;0.73;;;;;;;5.90;95.75;99412.75;5027311;28;20029;-88
2024/02/19 05:35:34;;;;;;;0.90;0.70;;;;;;;5.70;96.86;99374.03;5027746;28;20029;-89
2024/02/19 05:37:59;;;;;;;1.85;0.70;;;;;;;5.46;96.03;99341.00;5026152;28;20105;-87
2024/02/19 05:40:25;;;;;;;0.98;0.55;;;;;;;5.40;96.17;99333.06;5025386;28;20127;-87
2024/02/19 05:42:50;;;;;;;1.35;0.30;;;;;;;5.35;95.47;99332.88;4992037;28;20119;-88
2024/02/19 05:45:16;;;;;;;0.80;0.63;;;;;;;6.07;96.07;99433.53;5012832;28;20480;-88
2024/02/19 05:47:42;;;;;;;0.63;0.50;;;;;;;5.93;96.76;99438.84;5007986;28;20041;-88
2024/02/19 05:50:08;;;;;;;1.95;0.60;;;;;;;5.39;96.48;99381.75;5030685;28;20075;-87
2024/02/19 05:52:33;;;;;;;2.45;0.85;;;;;;;5.47;96.61;99369.13;5026041;28;20109;-88
2024/02/19 05:55:01;;;;;;;2.33;0.90;;;;;;;5.87;96.33;99437.00;5031568;28;20365;-89
2024/02/19 05:57:27;;;;;;;1.88;1.02;;;;;;;6.00;96.55;99462.69;5010664;28;20167;-89
2024/02/19 05:59:52;;;;;;;1.52;0.75;;;;;;;5.73;96.09;99426.56;4994767;28;20527;-89
2024/02/19 06:02:18;;;;;;;0.70;0.57;;;;;;;5.95;96.13;99463.28;5006270;28;20083;-89
2024/02/19 06:04:44;;;;;;;0.60;0.60;;;;;;;5.37;96.05;99374.00;5006634;28;20104;-87
2024/02/19 06:07:09;;;;;;;1.13;0.85;;;;;;;5.91;96.45;99467.38;5026055;28;20021;-88
2024/02/19 06:09:34;;;;;;;0.95;0.60;;;;;;;5.44;96.08;99392.53;5006838;28;20404;-88
2024/02/19 06:12:00;;;;;;;0.90;0.90;;;;;;;5.72;96.46;99446.94;5007041;28;20505;-88
2024/02/19 06:14:28;;;;;;;1.83;0.68;;;;;;;5.57;96.29;99400.50;5033152;28;20037;-88
2024/02/19 06:16:54;;;;;;;1.55;0.80;;;;;;;5.75;95.94;99448.34;5037505;28;20037;-87
2024/02/19 06:19:19;;;;;;;0.60;0.60;;;;;;;5.95;96.25;99481.84;4998225;28;20025;-88
2024/02/19 06:21:45;;;;;;;1.23;0.82;;;;;;;5.74;95.73;99431.69;5015865;28;20124;-88
2024/02/19 06:24:10;;;;;;;0.93;0.60;;;;;;;5.82;95.80;99463.25;5018004;28;20393;-87
2024/02/19 06:26:36;;;;;;;0.60;0.60;;;;;;;5.80;96.03;99465.28;5032158;28;20065;-88
2024/02/19 06:29:03;;;;;;;0.70;0.70;;;;;;;5.94;95.87;99493.44;5007741;28;20037;-88
2024/02/19 06:31:28;;;;;;;2.22;0.88;;;;;;;6.03;96.19;99502.81;5031418;28;20021;-88
2024/02/19 06:33:54;;;;;;;0.82;0.73;;;;;;;5.98;95.85;99507.91;5015091;28;20489;-88
2024/02/19 06:36:20;;;;;;;0.60;0.60;;;;;;;5.95;96.03;99503.03;5031047;28;20045;-88
2024/02/19 06:38:46;;;;;;;1.80;0.80;;;;;;;5.38;95.62;99425.09;5016542;28;20497;-88
2024/02/19 06:41:11;;;;;;;2.40;0.80;;;;;;;5.99;96.09;99514.84;5030495;28;20022;-88
2024/02/19 06:43:37;;;;;;;2.00;0.77;;;;;;;5.84;95.19;99489.56;5009317;28;20036;-88
2024/02/19 06:46:02;;;;;;;3.22;0.70;;;;;;;5.51;95.37;99451.59;5024391;28;20184;-88
2024/02/19 06:48:28;;;;;;;0.60;0.60;;;;;;;5.27;96.14;99424.69;5011210;28;20029;-88
2024/02/19 06:50:53;;;;;;;1.98;1.15;;;;;;;5.38;95.92;99462.97;5014173;28;20209;-88
2024/02/19 06:53:18;;;;;;;4.60;1.10;;;;;;;5.91;95.12;99520.34;4994572;28;20041;-88
2024/02/19 06:55:44;;;;;;;4.47;0.80;;;;;;;5.20;96.54;99447.66;5028951;28;20075;-88
2024/02/19 06:58:09;;;;;;;2.13;0.88;;;;;;;5.80;96.00;99518.28;4996530;28;20376;-88
2024/02/19 07:00:34;;;;;;;3.78;1.20;;;;;;;6.04;95.46;99530.97;5005045;28;20029;-88
2024/02/19 07:03:00;;;;;;;1.52;1.00;;;;;;;5.80;96.36;99534.16;5018437;28;20396;-88
2024/02/19 07:05:25;;;;;;;2.83;1.00;;;;;;;5.83;95.50;99536.38;4997506;28;20042;-88
2024/02/19 07:07:51;;;;;;;6.97;1.10;;;;;;;6.01;95.34;99557.84;5033141;28;20040;-88
2024/02/19 07:10:17;;;;;;;3.35;1.17;;;;;;;5.17;96.28;99456.00;5016829;28;20068;-88
2024/02/19 07:12:43;;;;;;;1.27;0.80;;;;;;;5.77;97.08;99550.44;5014368;28;20021;-88
2024/02/19 07:15:08;;;;;;;4.47;1.60;;;;;;;5.86;95.99;99532.56;5013778;28;20084;-88
2024/02/19 07:17:34;;;;;;;2.53;1.55;;;;;;;5.88;95.78;99547.25;5034163;28;20044;-88
2024/02/19 07:20:01;;;;;;;2.40;1.25;;;;;;;5.74;95.51;99532.31;4995543;28;20567;-88
2024/02/19 07:22:26;;;;;;;5.65;1.45;;;;;;;5.89;95.55;99554.19;5024065;28;20024;-88
2024/02/19 07:24:52;;;;;;;0.95;0.95;;;;;;;5.83;96.80;99548.84;5031256;28;20971;-88
2024/02/19 07:27:17;;;;;;;5.00;1.30;;;;;;;6.16;95.77;99568.25;5015973;28;20037;-88
2024/02/19 07:29:42;;;;;;;1.73;1.20;;;;;;;5.50;95.85;99468.50;4999346;28;20044;-88
2024/02/19 07:32:08;;;;;;;2.58;1.00;;;;;;;5.96;96.08;99562.16;5004320;28;20034;-88
2024/02/19 07:34:33;;;;;;;6.15;1.42;;;;;;;6.12;96.15;99576.81;5031971;28;20043;-88
2024/02/19 07:36:59;;;;;;;2.15;1.40;;;;;;;5.62;96.06;99496.00;5009639;28;20111;-88
2024/02/19 07:39:24;;;;;;;2.78;1.30;;;;;;;6.18;95.21;99581.34;4991204;28;20022;-88
2024/02/19 07:41:50;;;;;;;2.08;1.40;;;;;;;6.18;95.73;99586.63;5032742;28;20120;-88
2024/02/19 07:44:15;;;;;;;1.42;1.05;;;;;;;5.92;95.49;99553.75;5030524;28;20032;-88
2024/02/19 07:46:40;;;;;;;1.75;1.17;;;;;;;5.63;96.24;99492.38;5015659;28;20030;-88
2024/02/19 07:49:06;;;;;;;1.83;1.20;;;;;;;6.13;95.80;99587.25;5007865;28;20057;-88
2024/02/19 07:51:31;;;;;;;1.30;1.20;;;;;;;6.15;95.95;99573.78;4993959;28;20050;-88
2024/02/19 07:53:58;;;;;;;2.05;0.70;;;;;;;6.13;96.34;99586.41;4991786;28;20539;-88
2024/02/19 07:56:24;;;;;;;1.23;0.80;;;;;;;5.57;96.41;99490.53;4995312;28;20519;-88
2024/02/19 07:58:49;;;;;;;3.45;0.82;;;;;;;5.73;95.48;99522.72;5013682;28;20025;-88
2024/02/19 08:01:14;;;;;;;1.40;1.23;;;;;;;5.99;96.07;99570.50;4992547;28;20037;-89
2024/02/19 08:03:40;;;;;;;2.33;0.85;;;;;;;5.54;96.47;99510.25;5010255;28;20030;-88
2024/02/19 08:06:07;;;;;;;0.85;0.77;;;;;;;5.60;95.76;99493.56;5015649;28;20043;-88
2024/02/19 08:08:32;;;;;;;1.13;0.77;;;;;;;5.60;96.40;99488.28;5011992;28;20099;-89
2024/02/19 08:10:58;;;;;;;0.63;0.63;;;;;;;5.80;95.59;99528.88;5030763;28;20035;-88
2024/02/19 08:13:23;;;;;;;1.30;0.90;;;;;;;5.57;95.86;99522.28;5028934;28;20117;-89
2024/02/19 08:15:49;;;;;;;2.45;0.82;;;;;;;5.75;96.50;99533.13;5014753;28;20123;-88
2024/02/19 08:18:14;;;;;;;1.17;0.70;;;;;;;5.96;96.66;99570.88;5011491;28;20040;-88
2024/02/19 08:20:40;;;;;;;0.77;0.57;;;;;;;6.31;96.09;99610.50;5014356;28;20029;-89
2024/02/19 08:23:06;;;;;;;2.67;0.90;;;;;;;6.03;96.36;99562.94;5011001;28;20029;-89
2024/02/19 08:25:33;;;;;;;1.48;0.70;;;;;;;6.31;96.30;99619.25;5030057;28;20047;-88
2024/02/19 08:27:59;;;;;;;1.10;0.60;;;;;;;5.74;96.38;99519.06;5023416;28;20492;-89
2024/02/19 08:30:25;;;;;;;0.52;0.52;;;;;;;5.41;96.51;99491.69;5027024;28;20033;-88
2024/02/19 08:32:54;;;;;;;1.23;0.90;;;;;;;5.95;96.03;99557.84;5013378;28;20049;-89
2024/02/19 08:35:22;;;;;;;1.42;1.10;;;;;;;5.81;95.46;99519.09;5031009;28;20053;-89
2024/02/19 08:37:47;;;;;;;1.02;1.00;;;;;;;6.23;95.19;99581.53;5023505;28;20032;-88
2024/02/19 08:40:13;;;;;;;1.17;1.08;;;;;;;5.77;96.17;99513.38;5026515;28;20033;-89
2024/02/19 08:42:38;;;;;;;1.08;0.90;;;;;;;6.31;95.72;99591.94;5012679;28;20080;-88
2024/02/19 08:45:05;;;;;;;0.50;0.50;;;;;;;5.54;96.13;99483.78;4989413;28;20041;-89
2024/02/19 08:47:30;;;;;;;1.17;1.00;;;;;;;6.34;96.80;99618.84;5009944;28;20029;-88
2024/02/19 08:49:56;;;;;;;1.00;0.90;;;;;;;6.32;96.45;99593.56;5028321;28;20029;-89
2024/02/19 08:52:22;;;;;;;3.25;1.17;;;;;;;6.52;96.13;99620.91;5013058;28;20113;-88
2024/02/19 08:54:50;;;;;;;1.05;1.02;;;;;;;6.30;96.50;99614.16;5035478;28;20040;-89
2024/02/19 08:57:16;;;;;;;0.88;0.75;;;;;;;6.18;96.27;99592.72;5012026;28;20072;-88
2024/02/19 08:59:45;;;;;;;0.73;0.68;;;;;;;6.29;95.97;99578.09;5026892;28;20045;-88
2024/02/19 09:02:14;;;;;;;1.13;0.68;;;;;;;6.22;96.26;99566.66;5027093;28;20059;-88
2024/02/19 09:04:44;;;;;;;1.15;0.82;;;;;;;6.54;96.81;99637.44;5025597;28;20372;-88
2024/02/19 09:07:10;;;;;;;0.70;0.70;;;;;;;6.63;96.07;99625.63;5026588;28;20108;-89
2024/02/19 09:09:36;;;;;;;0.60;0.60;;;;;;;5.94;96.66;99532.38;5029319;28;20026;-89
2024/02/19 09:12:03;;;;;;;0.70;0.70;;;;;;;6.05;95.52;99527.28;5022978;28;20121;-88
2024/02/19 09:14:29;;;;;;;0.70;0.63;;;;;;;6.73;95.70;99633.97;5031283;28;20393;-89
2024/02/19 09:16:58;;;;;;;1.63;0.70;;;;;;;6.77;96.03;99629.91;5022797;28;20033;-88
2024/02/19 09:19:23;;;;;;;1.20;0.55;;;;;;;6.55;96.42;99604.63;5009587;28;20029;-89
2024/02/19 09:21:49;;;;;;;2.05;0.80;;;;;;;6.69;96.13;99630.91;5020634;28;20041;-88
2024/02/19 09:24:14;;;;;;;2.00;0.80;;;;;;;6.78;95.79;99623.56;5010605;28;20088;-88
2024/02/19 09:26:41;;;;;;;0.70;0.70;;;;;;;6.78;96.34;99616.44;5026937;28;20468;-88
2024/02/19 09:29:07;;;;;;;0.65;0.65;;;;;;;6.41;95.58;99556.06;5031286;28;20030;-88
2024/02/19 09:31:33;;;;;;;0.60;0.60;;;;;;;6.36;95.32;99539.94;5031429;28;20143;-89
2024/02/19 09:33:59;;;;;;;2.42;1.00;;;;;;;6.74;95.85;99625.00;4992680;28;20041;-88
2024/02/19 09:36:25;;;;;;;1.20;1.10;;;;;;;6.87;96.40;99638.28;5027717;28;20111;-88
2024/02/19 09:38:53;;;;;;;0.60;0.60;;;;;;;6.83;96.17;99631.75;5028736;28;20065;-88
2024/02/19 09:41:19;;;;;;;0.93;0.60;;;;;;;6.77;96.26;99608.69;5013347;28;20100;-88
2024/02/19 09:43:45;;;;;;;0.73;0.63;;;;;;;6.98;95.51;99610.28;5017261;28;20104;-88
2024/02/19 09:46:15;;;;;;;1.08;0.77;;;;;;;6.91;95.07;99626.22;5011802;28;20088;-87
2024/02/19 09:48:48;;;;;;;1.05;0.70;;;;;;;7.04;95.55;99639.47;5034305;28;20037;-87
2024/02/19 09:51:17;;;;;;;1.98;0.68;;;;;;;6.89;95.49;99620.31;5009090;28;20404;-88
2024/02/19 09:53:44;;;;;;;2.80;0.90;;;;;;;7.01;95.88;99645.19;5026554;28;20374;-87
2024/02/19 09:56:13;;;;;;;1.42;0.55;;;;;;;6.62;95.29;99568.28;5023118;28;20044;-87
2024/02/19 09:58:40;;;;;;;0.88;0.50;;;;;;;7.07;95.58;99628.44;5011084;28;20025;-87
2024/02/19 10:01:06;;;;;;;1.15;0.95;;;;;;;7.03;94.74;99613.97;5034511;28;20048;-87
2024/02/19 10:03:32;;;;;;;4.35;1.33;;;;;;;7.23;94.74;99641.28;5034345;28;20021;-87
2024/02/19 10:05:57;;;;;;;0.93;0.60;;;;;;;7.32;94.32;99647.16;5032131;28;20042;-87
2024/02/19 10:08:26;;;;;;;1.23;0.98;;;;;;;7.39;93.69;99647.97;5030615;28;20030;-87
2024/02/19 10:10:56;;;;;;;1.08;0.40;;;;;;;7.42;94.33;99642.25;5014271;28;20029;-88
2024/02/19 10:13:24;;;;;;;2.28;0.90;;;;;;;7.38;93.72;99636.53;5028463;28;20083;-88
2024/02/19 10:15:52;;;;;;;1.92;1.25;;;;;;;7.29;93.96;99619.22;5017018;28;20512;-87
2024/02/19 10:18:19;;;;;;;2.92;1.55;;;;;;;6.85;93.36;99562.53;5005781;28;20038;-87
2024/02/19 10:20:47;;;;;;;2.25;1.27;;;;;;;7.41;93.65;99645.94;5026066;28;20033;-87
2024/02/19 10:23:13;;;;;;;1.60;1.00;;;;;;;7.37;94.22;99642.88;5033320;28;20399;-88
2024/02/19 10:25:39;;;;;;;1.30;1.20;;;;;;;7.22;93.97;99609.63;5014829;28;20052;-87
2024/02/19 10:28:07;;;;;;;2.38;1.10;;;;;;;7.24;93.88;99603.09;5018327;28;20068;-88
2024/02/19 10:30:33;;;;;;;4.50;1.20;;;;;;;7.65;93.42;99655.88;5030084;28;20971;-88
2024/02/19 10:32:58;;;;;;;3.90;1.38;;;;;;;6.87;92.46;99518.03;5024440;28;20026;-87
2024/02/19 10:35:24;;;;;;;1.35;0.95;;;;;;;7.60;93.04;99655.66;5014885;28;20116;-87
2024/02/19 10:37:49;;;;;;;4.75;1.55;;;;;;;7.19;92.83;99570.22;5025287;28;20033;-87
2024/02/19 10:40:18;;;;;;;4.88;1.83;;;;;;;7.57;92.73;99638.34;5019624;28;20025;-87
2024/02/19 10:42:46;;;;;;;6.90;2.10;;;;;;;7.53;92.36;99621.16;5016648;28;20033;-87
2024/02/19 10:45:12;;;;;;;5.05;2.65;;;;;;;7.27;92.07;99586.72;5028197;28;20476;-87
2024/02/19 10:47:38;;;;;;;3.88;1.90;;;;;;;7.26;92.41;99602.88;5034190;28;20188;-87
2024/02/19 10:50:04;;;;;;;6.95;4.05;;;;;;;7.03;92.11;99563.53;4999176;28;20115;-87
2024/02/19 10:52:31;;;;;;;3.13;1.67;;;;;;;7.39;92.74;99632.03;5030532;28;20443;-87
2024/02/19 10:54:57;;;;;;;3.72;2.17;;;;;;;7.56;91.57;99617.28;4995864;28;20026;-87
2024/02/19 10:57:23;;;;;;;6.32;1.77;;;;;;;7.46;91.70;99617.75;5034980;28;20040;-87
2024/02/19 11:00:04;;;;;;;4.15;1.42;;;;;;;7.75;90.80;99618.25;5025924;28;20025;-87
2024/02/19 11:02:30;;;;;;;6.63;2.30;;;;;;;7.52;91.32;99610.75;5022607;28;20022;-87
2024/02/19 11:04:58;;;;;;;4.47;1.80;;;;;;;7.89;90.48;99620.63;5014648;28;20029;-87
2024/02/19 11:07:23;;;;;;;3.63;1.63;;;;;;;7.45;90.20;99548.88;5010928;28;20502;-88
2024/02/19 11:09:57;;;;;;;4.20;1.90;;;;;;;7.86;89.91;99580.38;5005268;28;20037;-87
2024/02/19 11:12:26;;;;;;;6.82;2.00;;;;;;;8.01;90.31;99610.13;5026100;28;20121;-87
2024/02/19 11:14:52;;;;;;;7.03;1.75;;;;;;;8.20;89.64;99633.94;5027267;28;20447;-88
2024/02/19 11:17:17;;;;;;;4.75;1.95;;;;;;;8.30;88.90;99626.34;5008318;28;20076;-87
2024/02/19 11:19:43;;;;;;;7.10;2.58;;;;;;;8.24;89.84;99626.34;5031570;28;20026;-87
2024/02/19 11:22:11;;;;;;;6.88;1.92;;;;;;;7.97;91.26;99623.00;5027664;28;20080;-87
2024/02/19 11:24:37;;;;;;;3.67;2.25;;;;;;;8.03;91.61;99640.81;5026470;28;20029;-87
2024/02/19 11:27:07;;;;;;;6.88;1.85;;;;;;;7.99;91.08;99626.31;5009821;28;20052;-87
2024/02/19 11:29:33;;;;;;;6.10;2.22;;;;;;;8.18;90.42;99627.22;5005754;28;20484;-87
2024/02/19 11:32:03;;;;;;;6.22;2.05;;;;;;;7.99;90.77;99622.81;5022640;28;20056;-87
2024/02/19 11:34:29;;;;;;;7.43;2.88;;;;;;;7.47;90.40;99544.97;5028230;28;20025;-87